Columbus, NE

7:27 AM CDT on October 02, 2014 (GMT -0500)
Columbus Municipal | Change Station
CLOSE
Current Station
Airport
Location: Columbus,
Elevation: 1444 ft
Nearby Weather Stations

Elev 1444 ft 41.45 °N, 97.34 °W | Updated 12 minutes ago

Scattered Clouds
Scattered Clouds
54 °F
Feels Like 54 °F
N
13
Wind Variable Wind from North
Gusts 23 mph

Today
High -- | Low -- °F
--% Chance of Precip.
Yesterday
High -- | Low -- °F
Precip. -- in
7:27 AM 7:09 PM
First Quarter, 58% visible
Pressure 29.86 in
Visibility 10.0 miles
Clouds Scattered Clouds 1100 ft
Scattered Clouds 11000 ft
Dew Point 48 °F
Humidity 82%
Rainfall 0.21 in
Snow Depth Not available.
UV 0 out of 12
Pollen .50 out of 12
Air Quality Not available.
Flu Activity Not available.
METAR KOLU 021215Z AUTO 35011G20KT 10SM SCT011 SCT110 12/09 A2986 RMK AO1

More Conditions Fewer Conditions

Pressure 29.86 in
Visibility 10.0 miles
Clouds Scattered Clouds 1100 ft
Scattered Clouds 11000 ft
Dew Point 48 °F
Humidity 82%
Rainfall 0.21 in
Snow Depth Not available.
UV 0 out of 12
Pollen .50 out of 12
Air Quality Not available.
Flu Activity Not available.
METAR KOLU 021215Z AUTO 35011G20KT 10SM SCT011 SCT110 12/09 A2986 RMK AO1

More Conditions Fewer Conditions

10-Day Weather Forecast

Almanac

Astronomy

Oct. 02, 2014 Rise Set
Actual Time 7:27 AM CDT 7:09 PM CDT
Civil Twilight 6:59 AM CDT 7:36 PM CDT
Nautical Twilight 6:27 AM CDT 8:09 PM CDT
Astronomical Twilight 5:55 AM CDT 8:41 PM CDT
Moon 3:20 PM CDT 12:41 AM CDT
Length of Visible Light 12h 37m
Length of Day
11h 42m
Tomorrow will be 2m 44s shorter.
First Quarter, 58% of the Moon is Illuminated
Today
First Quarter
Oct 8
Full
Oct 15
Last Quarter
Oct 23
New
Oct 30
First Quarter

Today's Extremes

State Highs State Lows

Community

WunderPhotos

Upload Photos

1,758,223 photos uploaded!

WunderBlogs® & News

Nearby

Snow Depth

Station Depth Elevation
No new snow has been reported.

Earthquake Activity

City Distance Mag. Time & Date
No recent earthquake activity has been reported nearby.
Minimum magnitude displayed is 2.5.

Coastal Water Temperatures

Place Temperature
No Stations Reporting

Nearby Weather Stations